Time;durP1;ratioP1;P1;durP2;ratioP2;P2;SDS_P1;SDS_P2;PMS_P1;PMS_P2;Temp;Humidity;BMP_temperature;BMP_pressure;BME280_temperature;BME280_humidity;BME280_pressure;Samples;Min_cycle;Max_cycle;Signal;HPM_P1;HPM_P2
2022/03/16 00:00:34;;;;;;;2.20;2.10;;;;;;;;;;1788639;79;26758;-39
2022/03/16 00:03:01;;;;;;;2.02;1.92;;;;;;;;;;1787927;78;26925;-39
2022/03/16 00:05:29;;;;;;;1.80;1.80;;;;;;;;;;1796418;78;26802;-39
2022/03/16 00:07:56;;;;;;;1.75;1.72;;;;;;;;;;1779941;79;26282;-39
2022/03/16 00:10:23;;;;;;;2.08;1.98;;;;;;;;;;1791399;79;26325;-38
2022/03/16 00:12:51;;;;;;;1.77;1.77;;;;;;;;;;1792391;78;26339;-41
2022/03/16 00:15:18;;;;;;;2.00;1.90;;;;;;;;;;1782947;78;26283;-39
2022/03/16 00:17:45;;;;;;;2.30;2.20;;;;;;;;;;1805628;79;26299;-39
2022/03/16 00:20:13;;;;;;;2.17;2.08;;;;;;;;;;1825511;77;26286;-39
2022/03/16 00:22:41;;;;;;;2.17;2.08;;;;;;;;;;1819172;79;26773;-39
2022/03/16 00:25:09;;;;;;;2.00;1.90;;;;;;;;;;1814949;79;26279;-40
2022/03/16 00:27:37;;;;;;;2.10;2.00;;;;;;;;;;1815240;79;26279;-39
2022/03/16 00:30:05;;;;;;;2.10;2.00;;;;;;;;;;1815299;77;26840;-40
2022/03/16 00:32:32;;;;;;;1.92;1.82;;;;;;;;;;1809303;77;26746;-40
2022/03/16 00:34:59;;;;;;;2.05;1.90;;;;;;;;;;1806734;79;26255;-39
2022/03/16 00:37:28;;;;;;;2.15;1.90;;;;;;;;;;1803228;79;26329;-39
2022/03/16 00:39:55;;;;;;;2.05;1.95;;;;;;;;;;1807250;79;26562;-40
2022/03/16 00:42:22;;;;;;;2.10;2.00;;;;;;;;;;1810889;79;26320;-41
2022/03/16 00:44:50;;;;;;;2.10;2.00;;;;;;;;;;1803846;77;26329;-41
2022/03/16 00:47:17;;;;;;;2.17;2.08;;;;;;;;;;1804833;79;26271;-39
2022/03/16 00:49:44;;;;;;;1.82;1.72;;;;;;;;;;1818738;77;26337;-39
2022/03/16 00:52:12;;;;;;;2.00;1.90;;;;;;;;;;1803830;79;26267;-39
2022/03/16 00:54:39;;;;;;;2.30;2.20;;;;;;;;;;1809156;78;26437;-39
2022/03/16 00:57:07;;;;;;;2.15;2.05;;;;;;;;;;1813332;77;25868;-39
2022/03/16 00:59:34;;;;;;;2.08;1.98;;;;;;;;;;1806813;79;27180;-39
2022/03/16 01:02:01;;;;;;;2.00;1.90;;;;;;;;;;1812589;77;26275;-40
2022/03/16 01:04:29;;;;;;;2.12;2.02;;;;;;;;;;1799424;79;26325;-41
2022/03/16 01:06:56;;;;;;;2.02;1.92;;;;;;;;;;1801255;79;26309;-40
2022/03/16 01:09:23;;;;;;;2.08;1.98;;;;;;;;;;1807273;77;26804;-40
2022/03/16 01:11:51;;;;;;;2.40;2.20;;;;;;;;;;1807718;77;26289;-40
2022/03/16 01:14:18;;;;;;;2.10;2.00;;;;;;;;;;1792992;79;26285;-39
2022/03/16 01:16:45;;;;;;;2.30;1.90;;;;;;;;;;1830544;77;26278;-40
2022/03/16 01:19:14;;;;;;;1.85;1.75;;;;;;;;;;1850924;77;26598;-39
2022/03/16 01:21:42;;;;;;;2.00;1.90;;;;;;;;;;1843951;77;26337;-41
2022/03/16 01:24:09;;;;;;;2.02;1.92;;;;;;;;;;1817827;77;26267;-40
2022/03/16 01:26:37;;;;;;;2.10;1.90;;;;;;;;;;1813983;79;26223;-39
2022/03/16 01:29:04;;;;;;;2.25;2.15;;;;;;;;;;1808890;77;26258;-40
2022/03/16 01:31:32;;;;;;;2.00;1.90;;;;;;;;;;1805634;77;26286;-42
2022/03/16 01:33:59;;;;;;;2.00;1.90;;;;;;;;;;1801207;77;26356;-42
2022/03/16 01:36:26;;;;;;;2.27;2.17;;;;;;;;;;1803955;79;26717;-39
2022/03/16 01:38:54;;;;;;;1.87;1.77;;;;;;;;;;1806532;79;26262;-39
2022/03/16 01:41:21;;;;;;;2.17;2.08;;;;;;;;;;1791184;79;26261;-40
2022/03/16 01:43:50;;;;;;;2.90;2.10;;;;;;;;;;1801400;79;26282;-40
2022/03/16 01:46:17;;;;;;;2.00;1.90;;;;;;;;;;1803950;77;26451;-39
2022/03/16 01:48:44;;;;;;;2.30;2.10;;;;;;;;;;1821751;77;26791;-39
2022/03/16 01:51:12;;;;;;;1.92;1.90;;;;;;;;;;1851134;77;26916;-39
2022/03/16 01:53:40;;;;;;;2.50;2.15;;;;;;;;;;1807943;77;26289;-39
2022/03/16 01:56:09;;;;;;;2.33;2.10;;;;;;;;;;1789906;77;26351;-41
2022/03/16 01:58:36;;;;;;;4.25;2.02;;;;;;;;;;1822656;77;26706;-40
2022/03/16 02:01:03;;;;;;;2.75;2.10;;;;;;;;;;1820244;79;26745;-39
2022/03/16 02:03:31;;;;;;;1.90;1.80;;;;;;;;;;1820713;79;26679;-39
2022/03/16 02:05:59;;;;;;;2.42;2.25;;;;;;;;;;1838654;77;26345;-39
2022/03/16 02:08:28;;;;;;;2.02;1.92;;;;;;;;;;1850807;77;26786;-43
2022/03/16 02:10:55;;;;;;;3.75;2.10;;;;;;;;;;1849732;77;26352;-40
2022/03/16 02:13:22;;;;;;;1.95;1.85;;;;;;;;;;1820836;77;26342;-39
2022/03/16 02:15:50;;;;;;;2.00;1.90;;;;;;;;;;1819878;79;26270;-40
2022/03/16 02:18:17;;;;;;;2.25;2.15;;;;;;;;;;1818678;79;26316;-40
2022/03/16 02:20:46;;;;;;;2.10;2.00;;;;;;;;;;1823437;77;27433;-42
2022/03/16 02:23:13;;;;;;;2.10;1.90;;;;;;;;;;1814132;79;26699;-40
2022/03/16 02:25:48;;;;;;;2.25;2.05;;;;;;;;;;1815683;79;26267;-41
2022/03/16 02:28:16;;;;;;;2.10;2.00;;;;;;;;;;1790596;80;26349;-41
2022/03/16 02:30:43;;;;;;;2.35;2.15;;;;;;;;;;1815007;77;26265;-40
2022/03/16 02:33:11;;;;;;;2.15;2.05;;;;;;;;;;1833317;77;26734;-41
2022/03/16 02:35:39;;;;;;;2.15;2.05;;;;;;;;;;1814026;79;26294;-40
2022/03/16 02:38:06;;;;;;;1.95;1.85;;;;;;;;;;1813986;79;26341;-39
2022/03/16 02:40:34;;;;;;;2.22;2.02;;;;;;;;;;1814155;79;26341;-39
2022/03/16 02:43:02;;;;;;;2.20;2.10;;;;;;;;;;1807827;77;26323;-41
2022/03/16 02:45:29;;;;;;;2.20;2.10;;;;;;;;;;1811016;77;26786;-40
2022/03/16 02:47:57;;;;;;;2.10;2.00;;;;;;;;;;1819001;79;26290;-39
2022/03/16 02:50:24;;;;;;;2.98;2.05;;;;;;;;;;1820332;78;25615;-39
2022/03/16 02:52:51;;;;;;;2.10;2.00;;;;;;;;;;1820373;78;26696;-40
2022/03/16 02:55:18;;;;;;;2.12;2.02;;;;;;;;;;1820232;79;26275;-40
2022/03/16 02:57:46;;;;;;;2.17;2.00;;;;;;;;;;1845963;77;26294;-39
2022/03/16 03:00:14;;;;;;;2.33;2.00;;;;;;;;;;1846959;77;26729;-39
2022/03/16 03:02:42;;;;;;;1.87;1.80;;;;;;;;;;1820448;79;26266;-40
2022/03/16 03:05:10;;;;;;;1.95;1.85;;;;;;;;;;1810269;77;26283;-41
2022/03/16 03:07:37;;;;;;;2.20;2.10;;;;;;;;;;1796457;77;26234;-39
2022/03/16 03:10:05;;;;;;;2.22;2.02;;;;;;;;;;1823373;77;26447;-39
2022/03/16 03:12:35;;;;;;;2.20;2.10;;;;;;;;;;1820114;77;26684;-39
2022/03/16 03:15:04;;;;;;;2.10;2.00;;;;;;;;;;1809765;79;26289;-43
2022/03/16 03:17:32;;;;;;;2.52;2.20;;;;;;;;;;1807615;77;26299;-43
2022/03/16 03:19:59;;;;;;;2.30;2.02;;;;;;;;;;1800917;78;26346;-39
2022/03/16 03:22:27;;;;;;;2.12;2.02;;;;;;;;;;1839745;78;26311;-39
2022/03/16 03:24:55;;;;;;;2.20;2.10;;;;;;;;;;1827394;77;26289;-39
2022/03/16 03:27:23;;;;;;;2.12;2.02;;;;;;;;;;1811538;78;26283;-39
2022/03/16 03:29:51;;;;;;;2.37;2.17;;;;;;;;;;1800302;78;26333;-39
2022/03/16 03:32:19;;;;;;;2.00;1.90;;;;;;;;;;1828700;78;26368;-39
2022/03/16 03:34:51;;;;;;;2.02;1.92;;;;;;;;;;1770163;81;26705;-39
2022/03/16 03:37:17;;;;;;;2.15;1.85;;;;;;;;;;1769988;81;26365;-39
2022/03/16 03:39:45;;;;;;;1.90;1.80;;;;;;;;;;1770171;81;26313;-39
2022/03/16 03:42:12;;;;;;;1.95;1.92;;;;;;;;;;1787637;79;26268;-39
2022/03/16 03:44:40;;;;;;;1.95;1.85;;;;;;;;;;1806416;78;26372;-39
2022/03/16 03:47:08;;;;;;;2.20;2.10;;;;;;;;;;1809905;79;26278;-39
2022/03/16 03:49:37;;;;;;;2.83;1.90;;;;;;;;;;1804119;79;26337;-39
2022/03/16 03:52:05;;;;;;;2.45;1.90;;;;;;;;;;1794113;80;26271;-39
2022/03/16 03:54:32;;;;;;;2.00;1.90;;;;;;;;;;1794195;80;26291;-39
2022/03/16 03:56:59;;;;;;;2.00;1.75;;;;;;;;;;1800787;78;26757;-40
2022/03/16 03:59:26;;;;;;;1.77;1.77;;;;;;;;;;1809987;79;26275;-41
2022/03/16 04:01:54;;;;;;;1.95;1.85;;;;;;;;;;1806151;79;26213;-40
2022/03/16 04:04:21;;;;;;;1.80;1.80;;;;;;;;;;1799325;79;26314;-40
2022/03/16 04:06:49;;;;;;;1.90;1.90;;;;;;;;;;1805598;79;26408;-40
2022/03/16 04:09:16;;;;;;;2.15;1.92;;;;;;;;;;1808295;78;26368;-41
2022/03/16 04:11:43;;;;;;;2.30;2.10;;;;;;;;;;1808276;78;26267;-39
2022/03/16 04:14:11;;;;;;;1.80;1.80;;;;;;;;;;1805424;79;26275;-39
2022/03/16 04:16:38;;;;;;;2.00;1.90;;;;;;;;;;1804680;79;26252;-39
2022/03/16 04:19:06;;;;;;;3.60;2.17;;;;;;;;;;1804073;78;26379;-39
2022/03/16 04:21:33;;;;;;;1.87;1.80;;;;;;;;;;1832112;78;26283;-39
2022/03/16 04:24:02;;;;;;;1.77;1.72;;;;;;;;;;1822549;78;26617;-40
2022/03/16 04:26:29;;;;;;;1.82;1.82;;;;;;;;;;1800351;79;26575;-39
2022/03/16 04:28:57;;;;;;;1.90;1.80;;;;;;;;;;1805597;79;27296;-39
2022/03/16 04:31:24;;;;;;;2.05;1.95;;;;;;;;;;1826233;78;25758;-39
2022/03/16 04:33:52;;;;;;;2.10;2.00;;;;;;;;;;1841899;78;26275;-41
2022/03/16 04:36:19;;;;;;;2.08;1.98;;;;;;;;;;1841814;78;26369;-39
2022/03/16 04:38:47;;;;;;;1.95;1.85;;;;;;;;;;1841848;78;26334;-39
2022/03/16 04:41:14;;;;;;;1.98;1.87;;;;;;;;;;1837944;78;26685;-40
2022/03/16 04:43:41;;;;;;;1.98;1.87;;;;;;;;;;1806043;78;26820;-39
2022/03/16 04:46:09;;;;;;;2.05;1.85;;;;;;;;;;1810098;79;26282;-39
2022/03/16 04:48:36;;;;;;;1.90;1.80;;;;;;;;;;1808583;79;26275;-39
2022/03/16 04:51:03;;;;;;;1.90;1.80;;;;;;;;;;1804782;79;26317;-40
2022/03/16 04:53:30;;;;;;;2.30;2.10;;;;;;;;;;1805153;79;26267;-41
2022/03/16 04:55:58;;;;;;;2.10;2.00;;;;;;;;;;1803633;78;26330;-41
2022/03/16 04:58:25;;;;;;;2.00;1.90;;;;;;;;;;1799007;80;26342;-39
2022/03/16 05:00:52;;;;;;;2.15;1.98;;;;;;;;;;1800514;78;26632;-40
2022/03/16 05:03:19;;;;;;;2.00;1.90;;;;;;;;;;1801668;79;26811;-39
2022/03/16 05:05:47;;;;;;;2.00;1.90;;;;;;;;;;1794335;78;26718;-40
2022/03/16 05:08:14;;;;;;;1.65;1.65;;;;;;;;;;1799713;78;26273;-40
2022/03/16 05:10:42;;;;;;;3.17;1.87;;;;;;;;;;1789331;78;26207;-39
2022/03/16 05:13:09;;;;;;;2.12;2.02;;;;;;;;;;1791953;79;26403;-40
2022/03/16 05:15:36;;;;;;;2.00;1.90;;;;;;;;;;1783222;79;26314;-39
2022/03/16 05:18:04;;;;;;;2.00;1.90;;;;;;;;;;1780507;79;26793;-39
2022/03/16 05:20:31;;;;;;;1.90;1.80;;;;;;;;;;1801420;78;26845;-39
2022/03/16 05:22:58;;;;;;;2.00;1.90;;;;;;;;;;1782106;79;26885;-39
2022/03/16 05:25:27;;;;;;;1.95;1.85;;;;;;;;;;1803985;78;26803;-39
2022/03/16 05:27:55;;;;;;;1.80;1.80;;;;;;;;;;1809702;79;26287;-43
2022/03/16 05:30:23;;;;;;;2.00;1.80;;;;;;;;;;1795420;78;26419;-40
2022/03/16 05:32:51;;;;;;;2.77;2.10;;;;;;;;;;1801254;78;26290;-39
2022/03/16 05:35:18;;;;;;;1.80;1.80;;;;;;;;;;1801557;78;26513;-40
2022/03/16 05:37:46;;;;;;;2.10;2.00;;;;;;;;;;1788384;78;26231;-39
2022/03/16 05:40:13;;;;;;;2.40;2.20;;;;;;;;;;1789824;78;26742;-40
2022/03/16 05:42:40;;;;;;;2.20;2.08;;;;;;;;;;1796887;78;26273;-40
2022/03/16 05:45:08;;;;;;;2.00;1.90;;;;;;;;;;1797657;78;26349;-44
2022/03/16 05:47:35;;;;;;;1.70;1.70;;;;;;;;;;1788267;79;26216;-40
2022/03/16 05:50:03;;;;;;;2.02;1.92;;;;;;;;;;1799195;78;26271;-40
2022/03/16 05:52:31;;;;;;;1.90;1.82;;;;;;;;;;1798960;79;26793;-39
2022/03/16 05:55:00;;;;;;;2.00;1.90;;;;;;;;;;1793708;78;26750;-39
2022/03/16 05:57:27;;;;;;;2.22;2.02;;;;;;;;;;1787624;78;26816;-40
2022/03/16 05:59:54;;;;;;;2.00;1.90;;;;;;;;;;1800726;78;26227;-38
2022/03/16 06:02:22;;;;;;;2.55;2.15;;;;;;;;;;1791838;78;26267;-39
2022/03/16 06:04:49;;;;;;;1.90;1.90;;;;;;;;;;1775340;78;26325;-41
2022/03/16 06:07:16;;;;;;;1.90;1.80;;;;;;;;;;1841554;78;26786;-39
2022/03/16 06:09:44;;;;;;;1.75;1.70;;;;;;;;;;1802191;79;26717;-39
2022/03/16 06:12:12;;;;;;;1.95;1.87;;;;;;;;;;1806806;79;26355;-39
2022/03/16 06:14:39;;;;;;;2.42;2.10;;;;;;;;;;1811456;79;26762;-39
2022/03/16 06:17:06;;;;;;;1.67;1.67;;;;;;;;;;1810435;79;26716;-41
2022/03/16 06:19:34;;;;;;;2.00;1.90;;;;;;;;;;1809480;78;26275;-40
2022/03/16 06:22:01;;;;;;;1.85;1.60;;;;;;;;;;1846480;77;26272;-40
2022/03/16 06:24:28;;;;;;;2.62;1.95;;;;;;;;;;1818603;77;26817;-39
2022/03/16 06:26:56;;;;;;;2.33;1.90;;;;;;;;;;1800170;79;26263;-40
2022/03/16 06:29:23;;;;;;;1.77;1.77;;;;;;;;;;1800008;80;26274;-40
2022/03/16 06:31:51;;;;;;;2.40;2.20;;;;;;;;;;1839815;77;26268;-39
2022/03/16 06:34:18;;;;;;;1.87;1.77;;;;;;;;;;1848067;77;26271;-39
2022/03/16 06:36:45;;;;;;;1.75;1.70;;;;;;;;;;1800491;77;26263;-40
2022/03/16 06:39:13;;;;;;;1.95;1.85;;;;;;;;;;1814020;79;26715;-42
2022/03/16 06:41:42;;;;;;;2.08;1.98;;;;;;;;;;1814285;79;26287;-39
2022/03/16 06:44:10;;;;;;;1.85;1.75;;;;;;;;;;1815557;77;26271;-40
2022/03/16 06:46:38;;;;;;;2.25;1.80;;;;;;;;;;1786466;79;26341;-39
2022/03/16 06:49:06;;;;;;;1.80;1.80;;;;;;;;;;1826218;78;26307;-39
2022/03/16 06:51:33;;;;;;;2.22;1.80;;;;;;;;;;1844250;78;26296;-39
2022/03/16 06:54:00;;;;;;;1.80;1.70;;;;;;;;;;1817246;77;26314;-39
2022/03/16 06:56:27;;;;;;;1.98;1.87;;;;;;;;;;1820955;77;26746;-39
2022/03/16 06:58:55;;;;;;;2.00;1.85;;;;;;;;;;1829334;77;26252;-40
2022/03/16 07:01:22;;;;;;;2.30;2.10;;;;;;;;;;1836047;77;26251;-39
2022/03/16 07:03:50;;;;;;;2.52;1.95;;;;;;;;;;1847894;77;26829;-39
2022/03/16 07:06:17;;;;;;;1.92;1.90;;;;;;;;;;1823207;77;26728;-39
2022/03/16 07:08:46;;;;;;;1.98;1.80;;;;;;;;;;1812137;78;26313;-39
2022/03/16 07:11:15;;;;;;;2.65;2.00;;;;;;;;;;1812255;79;26314;-39
2022/03/16 07:14:30;;;;;;;2.10;2.00;;;;;;;;;;1787314;79;26745;-39
2022/03/16 07:16:12;;;;;;;2.65;1.82;;;;;;;;;;1795830;78;26338;-38
2022/03/16 07:18:39;;;;;;;1.60;1.60;;;;;;;;;;1804438;79;26325;-39
2022/03/16 07:21:06;;;;;;;2.17;1.98;;;;;;;;;;1790514;77;26397;-40
2022/03/16 07:23:33;;;;;;;2.15;1.90;;;;;;;;;;1796126;79;26369;-39
2022/03/16 07:26:01;;;;;;;1.80;1.70;;;;;;;;;;1804172;78;26358;-39
2022/03/16 07:28:28;;;;;;;2.02;1.92;;;;;;;;;;1794648;79;26638;-39
2022/03/16 07:30:55;;;;;;;2.02;1.82;;;;;;;;;;1792944;78;26326;-41
2022/03/16 07:33:23;;;;;;;2.35;1.80;;;;;;;;;;1789072;78;26280;-39
2022/03/16 07:35:50;;;;;;;2.37;2.10;;;;;;;;;;1807692;78;26325;-38
2022/03/16 07:38:19;;;;;;;2.05;1.90;;;;;;;;;;1808461;78;26307;-40
2022/03/16 07:40:46;;;;;;;1.90;1.80;;;;;;;;;;1798371;79;26316;-40
2022/03/16 07:43:14;;;;;;;4.35;1.98;;;;;;;;;;1797941;79;26279;-40
2022/03/16 07:45:41;;;;;;;2.77;2.02;;;;;;;;;;1788645;78;26310;-40
2022/03/16 07:48:08;;;;;;;1.80;1.70;;;;;;;;;;1800253;78;26276;-40
2022/03/16 07:50:36;;;;;;;1.80;1.70;;;;;;;;;;1803619;79;26279;-40
2022/03/16 07:53:03;;;;;;;2.00;1.90;;;;;;;;;;1796908;79;26397;-40
2022/03/16 07:55:31;;;;;;;3.50;1.85;;;;;;;;;;1796410;79;26342;-39
2022/03/16 07:57:59;;;;;;;1.70;1.70;;;;;;;;;;1788687;78;26252;-40
2022/03/16 08:00:26;;;;;;;1.90;1.82;;;;;;;;;;1793248;79;26288;-39
2022/03/16 08:02:54;;;;;;;2.00;1.90;;;;;;;;;;1796717;78;26286;-40
2022/03/16 08:05:22;;;;;;;1.80;1.80;;;;;;;;;;1797590;78;26275;-41
2022/03/16 08:07:50;;;;;;;1.80;1.80;;;;;;;;;;1795680;78;26893;-40
2022/03/16 08:10:17;;;;;;;1.90;1.80;;;;;;;;;;1795656;79;26329;-43
2022/03/16 08:12:45;;;;;;;1.80;1.70;;;;;;;;;;1796592;79;26293;-41
2022/03/16 08:15:12;;;;;;;1.70;1.70;;;;;;;;;;1807345;78;26326;-41
2022/03/16 08:17:40;;;;;;;2.00;1.90;;;;;;;;;;1796148;79;25705;-40
2022/03/16 08:20:08;;;;;;;1.60;1.60;;;;;;;;;;1786499;78;26325;-41
2022/03/16 08:22:36;;;;;;;1.87;1.77;;;;;;;;;;1787903;79;26840;-39
2022/03/16 08:25:05;;;;;;;1.90;1.80;;;;;;;;;;1788501;78;26383;-40
2022/03/16 08:27:33;;;;;;;1.80;1.70;;;;;;;;;;1784553;79;26361;-39
2022/03/16 08:30:00;;;;;;;1.90;1.80;;;;;;;;;;1798063;78;26292;-39
2022/03/16 08:32:27;;;;;;;1.82;1.82;;;;;;;;;;1791351;78;26288;-40
2022/03/16 08:34:55;;;;;;;2.00;1.90;;;;;;;;;;1792429;79;26349;-41
2022/03/16 08:37:22;;;;;;;2.00;1.80;;;;;;;;;;1781056;79;26322;-41
2022/03/16 08:39:50;;;;;;;2.02;1.92;;;;;;;;;;1798131;79;26274;-41
2022/03/16 08:42:18;;;;;;;1.85;1.80;;;;;;;;;;1791684;79;26899;-39
2022/03/16 08:44:45;;;;;;;1.90;1.80;;;;;;;;;;1804009;78;26865;-39
2022/03/16 08:47:16;;;;;;;1.87;1.77;;;;;;;;;;1794831;78;26217;-40
2022/03/16 08:49:45;;;;;;;1.92;1.82;;;;;;;;;;1788382;78;26349;-40
2022/03/16 08:52:12;;;;;;;1.98;1.87;;;;;;;;;;1794384;78;27024;-39
2022/03/16 08:54:40;;;;;;;1.70;1.70;;;;;;;;;;1803510;79;26295;-40
2022/03/16 08:57:11;;;;;;;1.70;1.70;;;;;;;;;;1785225;78;26290;-41
2022/03/16 08:59:37;;;;;;;1.80;1.80;;;;;;;;;;1797552;78;26869;-40
2022/03/16 09:02:05;;;;;;;1.75;1.75;;;;;;;;;;1795521;78;26302;-39
2022/03/16 09:04:34;;;;;;;1.72;1.72;;;;;;;;;;1791723;78;26677;-39
2022/03/16 09:07:06;;;;;;;2.05;1.95;;;;;;;;;;1791850;78;26711;-39
2022/03/16 09:09:30;;;;;;;2.00;1.90;;;;;;;;;;1788915;78;26755;-40
2022/03/16 09:11:58;;;;;;;1.72;1.72;;;;;;;;;;1792164;79;26358;-40
2022/03/16 09:14:25;;;;;;;2.00;1.90;;;;;;;;;;1797325;79;26739;-42
2022/03/16 09:16:52;;;;;;;1.92;1.85;;;;;;;;;;1787867;79;26743;-41
2022/03/16 09:19:22;;;;;;;2.05;1.95;;;;;;;;;;1795309;78;26730;-40
2022/03/16 09:21:50;;;;;;;2.08;1.98;;;;;;;;;;1802980;79;26581;-40
2022/03/16 09:24:18;;;;;;;1.85;1.75;;;;;;;;;;1805867;79;26735;-41
2022/03/16 09:26:46;;;;;;;2.00;1.70;;;;;;;;;;1809130;78;26243;-40
2022/03/16 09:29:13;;;;;;;1.90;1.80;;;;;;;;;;1806081;79;26839;-40
2022/03/16 09:31:43;;;;;;;1.70;1.70;;;;;;;;;;1806488;77;26891;-42
2022/03/16 09:34:10;;;;;;;1.70;1.70;;;;;;;;;;1806335;77;26667;-40
2022/03/16 09:36:39;;;;;;;1.72;1.72;;;;;;;;;;1814802;78;26255;-40
2022/03/16 09:39:07;;;;;;;1.70;1.70;;;;;;;;;;1806110;79;26374;-40
2022/03/16 09:41:36;;;;;;;2.05;1.95;;;;;;;;;;1804385;77;26812;-41
2022/03/16 09:44:04;;;;;;;1.67;1.57;;;;;;;;;;1805024;77;26767;-41
2022/03/16 09:46:32;;;;;;;1.80;1.70;;;;;;;;;;1806250;79;26391;-40
2022/03/16 09:49:00;;;;;;;1.72;1.62;;;;;;;;;;1803971;77;26277;-40
2022/03/16 09:51:34;;;;;;;1.60;1.60;;;;;;;;;;1805459;77;26278;-40
2022/03/16 09:53:57;;;;;;;1.90;1.80;;;;;;;;;;1796953;79;26340;-41
2022/03/16 09:56:24;;;;;;;2.15;1.95;;;;;;;;;;1805464;77;26339;-42
2022/03/16 09:58:51;;;;;;;1.98;1.87;;;;;;;;;;1807928;79;26263;-42
2022/03/16 10:01:19;;;;;;;1.72;1.70;;;;;;;;;;1811502;78;26330;-41
2022/03/16 10:03:50;;;;;;;2.17;1.80;;;;;;;;;;1804996;79;26313;-40
2022/03/16 10:06:19;;;;;;;1.90;1.80;;;;;;;;;;1806878;77;26247;-41
2022/03/16 10:13:13;;;;;;;1.70;1.70;;;;;;;;;;1807884;77;26250;-40
2022/03/16 10:14:16;;;;;;;2.10;2.00;;;;;;;;;;1816091;79;26272;-42
2022/03/16 10:19:30;;;;;;;1.82;1.72;;;;;;;;;;1805663;77;26341;-40
2022/03/16 10:21:58;;;;;;;1.80;1.70;;;;;;;;;;1804115;77;27422;-40
2022/03/16 10:24:31;;;;;;;1.52;1.52;;;;;;;;;;1811669;77;26731;-40
2022/03/16 10:26:59;;;;;;;1.80;1.70;;;;;;;;;;1804117;77;26287;-40
2022/03/16 10:29:33;;;;;;;1.87;1.77;;;;;;;;;;1806996;77;25771;-41
2022/03/16 10:32:06;;;;;;;1.70;1.60;;;;;;;;;;1807066;77;26359;-40
2022/03/16 10:34:34;;;;;;;1.87;1.77;;;;;;;;;;1807526;77;26305;-41
2022/03/16 10:37:09;;;;;;;1.60;1.60;;;;;;;;;;1807264;77;26287;-41
2022/03/16 10:39:34;;;;;;;1.85;1.75;;;;;;;;;;1817546;77;26290;-40
2022/03/16 10:48:00;;;;;;;1.80;1.80;;;;;;;;;;1815088;77;26331;-39
2022/03/16 10:50:27;;;;;;;1.70;1.70;;;;;;;;;;1812952;77;26729;-39
2022/03/16 10:52:55;;;;;;;1.65;1.65;;;;;;;;;;1805487;77;26291;-39
2022/03/16 10:55:22;;;;;;;1.87;1.70;;;;;;;;;;1817362;77;26788;-39
2022/03/16 10:57:50;;;;;;;1.75;1.65;;;;;;;;;;1833051;77;26295;-39
2022/03/16 11:00:18;;;;;;;1.67;1.67;;;;;;;;;;1822287;77;26321;-39
2022/03/16 11:02:47;;;;;;;2.00;1.90;;;;;;;;;;1816118;77;26270;-39
2022/03/16 11:05:18;;;;;;;2.00;1.90;;;;;;;;;;1815987;79;26369;-39
2022/03/16 11:07:51;;;;;;;1.85;1.67;;;;;;;;;;1820449;79;26275;-39
2022/03/16 11:10:17;;;;;;;1.90;1.80;;;;;;;;;;1840673;77;26283;-40
2022/03/16 11:15:32;;;;;;;1.55;1.50;;;;;;;;;;1819946;79;26791;-40
2022/03/16 11:18:01;;;;;;;1.72;1.72;;;;;;;;;;1818516;77;26821;-40
2022/03/16 11:20:32;;;;;;;1.75;1.75;;;;;;;;;;1819300;79;26290;-41
2022/03/16 11:25:49;;;;;;;1.60;1.60;;;;;;;;;;1798565;79;26329;-40
2022/03/16 11:28:18;;;;;;;1.80;1.80;;;;;;;;;;1799865;79;26313;-40
2022/03/16 11:30:46;;;;;;;1.92;1.82;;;;;;;;;;1815920;77;26908;-43
2022/03/16 11:33:16;;;;;;;1.80;1.70;;;;;;;;;;1850505;77;26276;-41
2022/03/16 11:35:50;;;;;;;1.55;1.50;;;;;;;;;;1850858;77;26344;-41
2022/03/16 11:38:16;;;;;;;1.85;1.77;;;;;;;;;;1850800;77;26743;-40
2022/03/16 11:40:45;;;;;;;1.90;1.80;;;;;;;;;;1851337;77;26267;-40
2022/03/16 11:43:15;;;;;;;2.00;1.90;;;;;;;;;;1818355;77;26692;-41
2022/03/16 11:45:50;;;;;;;1.98;1.87;;;;;;;;;;1820488;79;26302;-43
2022/03/16 11:48:37;;;;;;;2.00;1.90;;;;;;;;;;1823031;77;26272;-40
2022/03/16 11:51:15;;;;;;;1.77;1.75;;;;;;;;;;1820286;79;26298;-41
2022/03/16 11:53:43;;;;;;;2.33;2.15;;;;;;;;;;1796656;79;26324;-42
2022/03/16 11:56:20;;;;;;;2.17;2.08;;;;;;;;;;1776530;80;26304;-42
2022/03/16 11:58:48;;;;;;;2.10;2.00;;;;;;;;;;1784857;77;26325;-41
2022/03/16 12:01:28;;;;;;;2.00;1.90;;;;;;;;;;1825187;77;26382;-41
2022/03/16 12:04:11;;;;;;;2.30;2.10;;;;;;;;;;1819053;77;26278;-42
2022/03/16 12:06:51;;;;;;;2.10;2.00;;;;;;;;;;1821715;77;26329;-40
2022/03/16 12:09:22;;;;;;;2.02;1.92;;;;;;;;;;1751222;77;26733;-41
2022/03/16 12:14:58;;;;;;;2.22;2.12;;;;;;;;;;1805114;79;26290;-40
2022/03/16 12:17:26;;;;;;;2.20;2.10;;;;;;;;;;1804225;79;26281;-41
2022/03/16 12:20:14;;;;;;;2.30;2.20;;;;;;;;;;1814216;79;26306;-40
2022/03/16 12:22:46;;;;;;;2.10;2.00;;;;;;;;;;1813582;79;26661;-39
2022/03/16 12:25:29;;;;;;;2.20;2.10;;;;;;;;;;1793208;78;25867;-40
2022/03/16 12:30:48;;;;;;;2.08;1.98;;;;;;;;;;1799760;78;26299;-41
2022/03/16 12:33:19;;;;;;;2.22;2.12;;;;;;;;;;1792079;79;26271;-39
2022/03/16 12:35:50;;;;;;;2.40;2.20;;;;;;;;;;1800294;79;26285;-39
2022/03/16 12:38:19;;;;;;;2.42;2.33;;;;;;;;;;1783163;78;26283;-40
2022/03/16 12:43:37;;;;;;;2.45;2.35;;;;;;;;;;1790707;79;26992;-40
2022/03/16 12:46:05;;;;;;;2.12;2.02;;;;;;;;;;1796275;79;26389;-40
2022/03/16 12:48:33;;;;;;;2.42;2.30;;;;;;;;;;1796879;78;26838;-41
2022/03/16 12:51:01;;;;;;;2.15;2.05;;;;;;;;;;1783977;79;26252;-39
2022/03/16 12:53:45;;;;;;;2.40;2.30;;;;;;;;;;1794741;79;26319;-40
2022/03/16 12:56:16;;;;;;;2.37;2.20;;;;;;;;;;1787714;79;26298;-40
2022/03/16 12:58:45;;;;;;;2.25;2.15;;;;;;;;;;1799029;79;26661;-40
2022/03/16 13:01:19;;;;;;;2.20;2.10;;;;;;;;;;1779565;78;26282;-40
2022/03/16 13:03:46;;;;;;;2.47;2.33;;;;;;;;;;1783618;79;26309;-41
2022/03/16 13:06:20;;;;;;;2.47;2.30;;;;;;;;;;1789038;78;26274;-39
2022/03/16 13:08:49;;;;;;;2.30;2.20;;;;;;;;;;1797699;79;27251;-40
2022/03/16 13:11:22;;;;;;;2.40;2.30;;;;;;;;;;1793867;79;26301;-40
2022/03/16 13:14:19;;;;;;;2.37;2.27;;;;;;;;;;1789488;78;26297;-40
2022/03/16 13:16:40;;;;;;;2.58;2.37;;;;;;;;;;1797971;79;26759;-40
2022/03/16 13:19:08;;;;;;;2.30;2.20;;;;;;;;;;1804173;79;26795;-40
2022/03/16 13:21:36;;;;;;;2.15;2.05;;;;;;;;;;1804552;79;26292;-42
2022/03/16 13:24:05;;;;;;;2.25;2.15;;;;;;;;;;1806005;79;26400;-39
2022/03/16 13:26:33;;;;;;;2.30;2.20;;;;;;;;;;1812536;77;26306;-39
2022/03/16 13:29:02;;;;;;;2.55;2.35;;;;;;;;;;1797610;79;27269;-40
2022/03/16 13:31:30;;;;;;;2.47;2.37;;;;;;;;;;1818529;77;26389;-40
2022/03/16 13:34:01;;;;;;;2.15;2.05;;;;;;;;;;1804283;77;26364;-39
2022/03/16 13:36:35;;;;;;;2.58;2.40;;;;;;;;;;1819567;79;26283;-41
2022/03/16 13:39:04;;;;;;;2.20;2.10;;;;;;;;;;1840081;77;26243;-39
2022/03/16 13:41:31;;;;;;;2.27;2.17;;;;;;;;;;1835646;77;26318;-39
2022/03/16 13:44:05;;;;;;;2.45;2.15;;;;;;;;;;1790595;80;26246;-40
2022/03/16 13:46:39;;;;;;;2.25;2.10;;;;;;;;;;1790275;80;26274;-38
2022/03/16 13:49:15;;;;;;;2.42;2.30;;;;;;;;;;1790277;80;26352;-39
2022/03/16 13:52:00;;;;;;;2.87;2.50;;;;;;;;;;1840439;77;26420;-39
2022/03/16 13:54:27;;;;;;;2.40;2.30;;;;;;;;;;1850950;77;26374;-39
2022/03/16 13:56:55;;;;;;;2.30;2.20;;;;;;;;;;1851201;77;26268;-39
2022/03/16 13:59:24;;;;;;;2.33;2.22;;;;;;;;;;1851108;77;26283;-39
2022/03/16 14:01:53;;;;;;;2.85;2.52;;;;;;;;;;1816522;77;26344;-39
2022/03/16 14:04:21;;;;;;;2.87;2.27;;;;;;;;;;1820287;77;26328;-39
2022/03/16 14:06:54;;;;;;;2.80;2.33;;;;;;;;;;1821098;77;26577;-38
2022/03/16 14:09:19;;;;;;;2.60;2.40;;;;;;;;;;1819264;79;26704;-40
2022/03/16 14:11:51;;;;;;;2.60;2.40;;;;;;;;;;1819900;78;26346;-39
2022/03/16 14:14:19;;;;;;;3.15;2.30;;;;;;;;;;1823385;77;26774;-39
2022/03/16 14:16:47;;;;;;;2.60;2.40;;;;;;;;;;1830772;77;26263;-39
2022/03/16 14:19:25;;;;;;;2.25;2.05;;;;;;;;;;1820271;78;26271;-39
2022/03/16 14:21:52;;;;;;;2.50;2.30;;;;;;;;;;1805852;79;26283;-39
2022/03/16 14:24:20;;;;;;;3.22;2.37;;;;;;;;;;1804587;78;26406;-40
2022/03/16 14:26:48;;;;;;;3.50;2.42;;;;;;;;;;1823495;78;26757;-39
2022/03/16 14:29:15;;;;;;;2.90;2.40;;;;;;;;;;1814015;78;26355;-40
2022/03/16 14:31:43;;;;;;;5.92;2.60;;;;;;;;;;1815148;78;26332;-39
2022/03/16 14:34:11;;;;;;;3.33;2.42;;;;;;;;;;1807366;78;26668;-40
2022/03/16 14:36:38;;;;;;;4.12;2.20;;;;;;;;;;1790754;79;26252;-39
2022/03/16 14:39:05;;;;;;;2.33;2.20;;;;;;;;;;1818521;78;26782;-40
2022/03/16 14:41:33;;;;;;;2.47;2.27;;;;;;;;;;1826818;77;27305;-39
2022/03/16 14:44:00;;;;;;;3.45;2.45;;;;;;;;;;1776380;80;26337;-42
2022/03/16 14:46:28;;;;;;;3.87;2.42;;;;;;;;;;1776282;81;26293;-41
2022/03/16 14:48:55;;;;;;;3.70;2.30;;;;;;;;;;1784138;79;26350;-40
2022/03/16 14:51:22;;;;;;;2.40;2.20;;;;;;;;;;1816851;78;26283;-40
2022/03/16 14:53:50;;;;;;;3.15;2.33;;;;;;;;;;1832582;78;26369;-42
2022/03/16 14:56:17;;;;;;;4.03;2.33;;;;;;;;;;1832725;78;26208;-41
2022/03/16 14:58:44;;;;;;;4.70;2.58;;;;;;;;;;1832692;78;26279;-41
2022/03/16 15:01:12;;;;;;;2.72;2.30;;;;;;;;;;1832602;78;26415;-45
2022/03/16 15:03:39;;;;;;;4.35;2.33;;;;;;;;;;1827870;78;26427;-41
2022/03/16 15:06:06;;;;;;;3.70;2.33;;;;;;;;;;1807074;79;26350;-39
2022/03/16 15:08:34;;;;;;;2.77;2.58;;;;;;;;;;1805357;79;26815;-40
2022/03/16 15:11:01;;;;;;;2.33;2.12;;;;;;;;;;1805229;79;26708;-43
2022/03/16 15:13:28;;;;;;;2.33;2.12;;;;;;;;;;1773838;79;26310;-42
2022/03/16 15:15:56;;;;;;;3.62;2.60;;;;;;;;;;1813923;78;26361;-39